createdAt,value
2022-08-26T00:02:25.699Z,99.90
2022-08-26T00:04:57.315Z,1.00
2022-08-26T00:07:27.817Z,99.90
2022-08-26T00:09:59.760Z,99.90
2022-08-26T00:12:37.286Z,99.90
2022-08-26T00:15:11.509Z,99.90
2022-08-26T00:17:45.112Z,1.00
2022-08-26T00:20:20.513Z,1.00
2022-08-26T00:22:50.842Z,1.00
2022-08-26T00:25:24.597Z,1.00
2022-08-26T00:27:57.605Z,1.00
2022-08-26T00:30:31.716Z,1.00
2022-08-26T00:33:06.415Z,1.00
2022-08-26T00:35:38.788Z,1.00
2022-08-26T00:38:15.740Z,1.00
2022-08-26T00:40:52.665Z,1.00
2022-08-26T00:43:27.013Z,1.00
2022-08-26T00:46:07.771Z,1.00
2022-08-26T00:48:49.957Z,1.00
2022-08-26T00:51:29.713Z,1.00
2022-08-26T00:54:06.619Z,1.00
2022-08-26T00:56:53.681Z,1.00
2022-08-26T00:59:25.376Z,1.00
2022-08-26T01:01:58.732Z,2.90
2022-08-26T01:04:34.179Z,16.10
2022-08-26T01:07:04.805Z,29.60
2022-08-26T01:09:36.628Z,62.40
2022-08-26T01:12:08.416Z,53.20
2022-08-26T01:14:41.123Z,40.10
2022-08-26T01:17:16.895Z,54.60
2022-08-26T01:19:55.614Z,59.10
2022-08-26T01:22:35.493Z,54.30
2022-08-26T01:25:12.878Z,74.30
2022-08-26T01:27:43.457Z,98.70
2022-08-26T01:30:17.790Z,99.90
2022-08-26T01:32:49.917Z,99.90
2022-08-26T01:35:21.045Z,99.90
2022-08-26T01:37:57.446Z,99.90
2022-08-26T01:40:39.054Z,99.90
2022-08-26T01:43:14.767Z,99.90
2022-08-26T01:45:47.546Z,99.90
2022-08-26T01:48:26.563Z,99.90
2022-08-26T01:50:57.811Z,99.90
2022-08-26T01:53:29.941Z,99.90
2022-08-26T01:56:05.778Z,99.90
2022-08-26T01:58:40.922Z,99.90
2022-08-26T02:01:11.680Z,99.90
2022-08-26T02:04:10.102Z,99.90
2022-08-26T02:06:44.406Z,99.90
2022-08-26T02:09:19.919Z,99.90
2022-08-26T02:11:53.992Z,99.90
2022-08-26T02:14:33.584Z,99.90
2022-08-26T02:17:07.294Z,99.90
2022-08-26T02:19:44.491Z,99.90
2022-08-26T02:22:21.779Z,99.90
2022-08-26T02:24:55.913Z,99.90
2022-08-26T02:27:33.680Z,99.90
2022-08-26T02:30:17.176Z,99.90
2022-08-26T02:32:49.447Z,99.90
2022-08-26T02:35:22.644Z,99.90
2022-08-26T02:37:54.867Z,99.90
2022-08-26T02:40:30.803Z,99.90
2022-08-26T02:43:04.785Z,99.90
2022-08-26T02:45:40.219Z,99.90
2022-08-26T02:48:18.867Z,99.90
2022-08-26T02:50:49.644Z,99.90
2022-08-26T02:53:25.071Z,99.90
2022-08-26T02:55:55.880Z,99.90
2022-08-26T02:58:28.835Z,99.90
2022-08-26T03:00:59.633Z,99.90
2022-08-26T03:03:32.299Z,99.90
2022-08-26T03:06:02.888Z,99.90
2022-08-26T03:08:34.464Z,99.90
2022-08-26T03:11:06.059Z,99.90
2022-08-26T03:13:39.997Z,99.90
2022-08-26T03:16:14.065Z,99.90
2022-08-26T03:18:52.097Z,99.90
2022-08-26T03:21:23.790Z,99.90
2022-08-26T03:23:54.313Z,99.90
2022-08-26T03:26:30.921Z,99.90
2022-08-26T03:29:16.211Z,99.90
2022-08-26T03:31:47.301Z,99.90
2022-08-26T03:34:17.801Z,99.90
2022-08-26T03:36:49.423Z,99.90
2022-08-26T03:39:20.346Z,99.90
2022-08-26T03:41:51.600Z,99.90
2022-08-26T03:44:24.908Z,99.90
2022-08-26T03:46:55.430Z,99.90
2022-08-26T03:49:26.076Z,99.90
2022-08-26T03:51:59.317Z,99.90
2022-08-26T03:54:31.004Z,99.90
2022-08-26T03:57:01.418Z,99.90
2022-08-26T03:59:34.375Z,99.90
2022-08-26T04:02:11.424Z,99.90
2022-08-26T04:04:42.245Z,99.90
2022-08-26T04:07:15.745Z,99.90
2022-08-26T04:09:46.223Z,99.90
2022-08-26T04:12:17.775Z,99.90
2022-08-26T04:14:50.657Z,99.90
2022-08-26T04:17:26.389Z,99.90
2022-08-26T04:19:57.100Z,99.90
2022-08-26T04:22:27.545Z,99.90
2022-08-26T04:24:59.973Z,99.90
2022-08-26T04:27:31.677Z,99.90
2022-08-26T04:30:04.500Z,99.90
2022-08-26T04:32:34.762Z,99.90
2022-08-26T04:35:05.361Z,99.90
2022-08-26T04:37:36.537Z,99.90
2022-08-26T04:40:10.946Z,99.90
2022-08-26T04:42:41.396Z,99.90
2022-08-26T04:45:17.420Z,99.90
2022-08-26T04:47:47.813Z,99.90
2022-08-26T04:50:20.248Z,99.90
2022-08-26T04:52:54.359Z,99.90
2022-08-26T04:55:38.716Z,99.90
2022-08-26T04:58:12.965Z,99.90
2022-08-26T05:00:47.279Z,99.90
2022-08-26T05:03:18.439Z,99.90
2022-08-26T05:05:51.144Z,99.90
2022-08-26T05:08:23.607Z,99.90
2022-08-26T05:10:56.498Z,99.90
2022-08-26T05:13:30.572Z,99.90
2022-08-26T05:16:07.233Z,99.90
2022-08-26T05:18:38.464Z,99.90
2022-08-26T05:21:12.125Z,99.90
2022-08-26T05:23:42.292Z,99.90
2022-08-26T05:26:12.625Z,99.90
2022-08-26T05:28:47.234Z,99.90
2022-08-26T05:31:25.526Z,99.90
2022-08-26T05:33:58.423Z,99.90
2022-08-26T05:36:32.240Z,99.90
2022-08-26T05:39:03.239Z,99.90
2022-08-26T05:41:38.570Z,99.90
2022-08-26T05:44:18.772Z,99.90
2022-08-26T05:46:51.767Z,99.90
2022-08-26T05:49:26.209Z,99.90
2022-08-26T05:51:56.630Z,99.90
2022-08-26T05:54:26.884Z,99.90
2022-08-26T05:56:57.508Z,99.90
2022-08-26T05:59:27.783Z,99.90
2022-08-26T06:02:01.043Z,99.90
2022-08-26T06:04:31.445Z,99.90
2022-08-26T06:07:02.544Z,99.90
2022-08-26T06:09:39.095Z,99.90
2022-08-26T06:12:11.236Z,99.90
2022-08-26T06:14:41.538Z,99.90
2022-08-26T06:17:15.568Z,99.90
2022-08-26T06:19:45.887Z,99.90
2022-08-26T06:22:28.358Z,99.90
2022-08-26T06:25:12.179Z,99.90
2022-08-26T06:27:44.607Z,99.90
2022-08-26T06:30:16.348Z,99.90
2022-08-26T06:32:50.044Z,99.90
2022-08-26T06:35:22.056Z,99.90
2022-08-26T06:37:52.299Z,99.90
2022-08-26T06:40:24.068Z,99.90
2022-08-26T06:42:54.481Z,99.90
2022-08-26T06:45:24.781Z,99.90
2022-08-26T06:47:58.783Z,99.90
2022-08-26T06:50:28.982Z,99.90
2022-08-26T06:52:59.216Z,99.90
2022-08-26T06:55:30.947Z,99.90
2022-08-26T06:58:01.126Z,99.90
2022-08-26T07:00:32.733Z,99.90
2022-08-26T07:03:06.220Z,99.90
2022-08-26T07:05:38.556Z,99.90
2022-08-26T07:08:08.896Z,99.90
2022-08-26T07:10:39.729Z,99.90
2022-08-26T07:13:12.791Z,99.90
2022-08-26T07:15:44.603Z,99.90
2022-08-26T07:18:17.980Z,99.90
2022-08-26T07:20:51.923Z,99.90
2022-08-26T07:23:22.182Z,99.90
2022-08-26T07:25:53.766Z,99.90
2022-08-26T07:28:26.811Z,99.90
2022-08-26T07:31:04.109Z,99.90
2022-08-26T07:33:41.864Z,99.90
2022-08-26T07:36:15.669Z,99.90
2022-08-26T07:38:48.136Z,99.90
2022-08-26T07:41:22.814Z,99.90
2022-08-26T07:43:53.712Z,99.90
2022-08-26T07:46:27.162Z,99.90
2022-08-26T07:49:02.698Z,99.90
2022-08-26T07:51:33.305Z,99.90
2022-08-26T07:54:03.584Z,99.90
2022-08-26T07:56:33.970Z,99.90
2022-08-26T07:59:04.300Z,94.70
2022-08-26T08:01:47.465Z,99.90
2022-08-26T08:04:26.037Z,99.90
2022-08-26T08:06:57.885Z,92.30
2022-08-26T08:09:29.514Z,99.90
2022-08-26T08:11:59.729Z,99.90
2022-08-26T08:14:31.073Z,99.90
2022-08-26T08:17:02.173Z,99.90
2022-08-26T08:19:36.839Z,99.90
2022-08-26T08:22:17.774Z,99.90
2022-08-26T08:24:52.904Z,99.90
2022-08-26T08:27:24.325Z,99.90
2022-08-26T08:29:55.841Z,99.90
2022-08-26T08:32:27.089Z,99.90
2022-08-26T08:35:01.227Z,99.90
2022-08-26T08:37:31.679Z,99.90
2022-08-26T08:40:05.559Z,75.00
2022-08-26T08:42:47.051Z,49.10
2022-08-26T08:45:26.145Z,38.40
2022-08-26T08:48:01.952Z,50.00
2022-08-26T08:50:38.131Z,57.00
2022-08-26T08:53:20.456Z,82.90
2022-08-26T08:56:20.586Z,72.70
2022-08-26T08:58:58.924Z,19.90
2022-08-26T09:02:02.240Z,15.60
2022-08-26T09:05:05.900Z,22.40
2022-08-26T09:07:47.021Z,19.40
2022-08-26T09:10:38.055Z,26.70
2022-08-26T09:13:16.817Z,13.70
2022-08-26T09:16:03.893Z,1.00
2022-08-26T09:18:57.166Z,1.00
2022-08-26T09:21:29.085Z,1.00
2022-08-26T09:24:04.341Z,17.40
2022-08-26T09:26:48.843Z,8.70
2022-08-26T09:29:27.639Z,15.90
2022-08-26T09:32:32.212Z,18.20
2022-08-26T09:35:07.589Z,26.00
2022-08-26T09:40:39.751Z,38.10
2022-08-26T09:43:23.206Z,83.50
2022-08-26T09:45:59.652Z,84.80
2022-08-26T09:48:37.453Z,67.60
2022-08-26T09:51:32.608Z,65.70
2022-08-26T09:54:08.191Z,61.90
2022-08-26T09:56:42.998Z,77.10
2022-08-26T09:59:15.038Z,69.10
2022-08-26T10:01:49.423Z,56.90
2022-08-26T10:04:27.779Z,37.50
2022-08-26T10:07:02.393Z,21.60
2022-08-26T10:09:38.863Z,39.00
2022-08-26T10:12:19.452Z,43.60
2022-08-26T10:14:56.736Z,54.40
2022-08-26T10:17:35.069Z,40.50
2022-08-26T10:20:22.542Z,63.80
2022-08-26T10:23:02.466Z,83.20
2022-08-26T10:25:40.852Z,90.80
2022-08-26T10:28:24.504Z,99.90
2022-08-26T10:31:05.990Z,99.90
2022-08-26T10:33:36.429Z,99.90
2022-08-26T10:36:52.285Z,99.90
2022-08-26T10:39:34.222Z,99.90
2022-08-26T10:42:14.444Z,72.00
2022-08-26T10:44:52.858Z,86.30
2022-08-26T10:47:31.543Z,80.50
2022-08-26T10:50:03.690Z,62.60
2022-08-26T10:52:55.681Z,73.90
2022-08-26T10:55:38.488Z,60.50
2022-08-26T10:58:30.870Z,62.30
2022-08-26T11:01:35.233Z,54.00
2022-08-26T11:04:26.113Z,37.90
2022-08-26T11:07:37.104Z,28.50
2022-08-26T11:10:12.915Z,1.70
2022-08-26T11:13:03.664Z,4.30
2022-08-26T11:16:13.167Z,1.00
2022-08-26T11:18:54.694Z,1.00
2022-08-26T11:22:10.751Z,1.00
2022-08-26T11:25:06.582Z,1.00
2022-08-26T11:28:02.761Z,1.00
2022-08-26T11:30:42.784Z,1.00
2022-08-26T11:33:52.304Z,1.00
2022-08-26T11:37:03.469Z,1.00
2022-08-26T11:39:54.965Z,1.00
2022-08-26T11:42:42.727Z,1.00
2022-08-26T11:45:28.574Z,1.00
2022-08-26T11:47:59.829Z,1.00
2022-08-26T11:50:32.757Z,1.00
2022-08-26T11:53:07.762Z,1.00
2022-08-26T11:55:45.775Z,1.00
2022-08-26T11:58:19.732Z,1.00
2022-08-26T12:00:59.144Z,1.00
2022-08-26T12:03:40.262Z,1.00
2022-08-26T12:06:43.374Z,1.00
2022-08-26T12:09:24.817Z,1.00
2022-08-26T12:12:13.243Z,1.00
2022-08-26T12:14:44.800Z,1.00
2022-08-26T12:17:20.043Z,1.00
2022-08-26T12:19:52.848Z,1.00
2022-08-26T12:22:30.605Z,1.00
2022-08-26T12:25:05.671Z,1.00
2022-08-26T12:27:41.547Z,1.00
2022-08-26T12:30:20.035Z,1.00
2022-08-26T12:32:58.871Z,1.00
2022-08-26T12:35:29.988Z,1.00
2022-08-26T12:38:05.570Z,1.00
2022-08-26T12:40:43.220Z,1.00
2022-08-26T12:43:17.331Z,1.00
2022-08-26T12:46:02.173Z,1.00
2022-08-26T12:48:36.535Z,1.00
2022-08-26T12:51:10.690Z,1.00
2022-08-26T12:53:46.902Z,1.00
2022-08-26T12:56:33.852Z,1.00
2022-08-26T12:59:12.186Z,9.80
2022-08-26T13:01:50.037Z,1.00
2022-08-26T13:04:39.462Z,1.00
2022-08-26T13:07:25.876Z,1.00
2022-08-26T13:10:02.043Z,1.00
2022-08-26T13:12:37.269Z,1.00
2022-08-26T13:15:10.128Z,1.00
2022-08-26T13:17:40.342Z,1.00
2022-08-26T13:20:12.486Z,13.20
2022-08-26T13:22:42.733Z,1.00
2022-08-26T13:25:15.994Z,1.00
2022-08-26T13:27:49.975Z,1.00
2022-08-26T13:30:21.546Z,1.00
2022-08-26T13:32:58.288Z,1.00
2022-08-26T13:35:28.552Z,1.00
2022-08-26T13:37:58.972Z,1.00
2022-08-26T13:40:34.599Z,1.00
2022-08-26T13:43:05.056Z,1.00
2022-08-26T13:45:35.232Z,1.00
2022-08-26T13:48:06.873Z,1.00
2022-08-26T13:50:38.293Z,1.00
2022-08-26T13:53:08.561Z,1.00
2022-08-26T13:55:41.408Z,1.00
2022-08-26T13:58:12.408Z,1.00
2022-08-26T14:00:43.818Z,1.00
2022-08-26T14:03:14.417Z,1.00
2022-08-26T14:05:44.731Z,1.00
2022-08-26T14:08:15.052Z,1.00
2022-08-26T14:13:19.268Z,1.00
2022-08-26T14:15:50.928Z,1.00
2022-08-26T14:18:26.339Z,1.00
2022-08-26T14:20:59.311Z,1.00
2022-08-26T14:23:30.354Z,1.00
2022-08-26T14:26:08.146Z,1.00
2022-08-26T14:28:38.521Z,1.00
2022-08-26T14:31:10.003Z,99.90
2022-08-26T14:33:42.321Z,99.90
2022-08-26T14:36:25.383Z,99.90
2022-08-26T14:38:56.599Z,99.90
2022-08-26T14:41:32.011Z,99.90
2022-08-26T14:44:09.352Z,99.90
2022-08-26T14:46:46.378Z,99.90
2022-08-26T14:49:20.377Z,11.60
2022-08-26T14:51:50.675Z,99.90
2022-08-26T14:54:24.578Z,99.90
2022-08-26T14:57:00.474Z,31.10
2022-08-26T14:59:33.977Z,1.00
2022-08-26T15:02:04.808Z,99.90
2022-08-26T15:04:36.462Z,99.90
2022-08-26T15:07:07.853Z,99.90
2022-08-26T15:09:43.676Z,99.90
2022-08-26T15:12:16.385Z,1.00
2022-08-26T15:14:46.948Z,1.00
2022-08-26T15:17:21.475Z,1.00
2022-08-26T15:19:51.737Z,1.00
2022-08-26T15:22:22.280Z,99.90
2022-08-26T15:24:53.700Z,1.00
2022-08-26T15:27:27.626Z,99.90
2022-08-26T15:29:58.159Z,1.00
2022-08-26T15:32:29.479Z,1.00
2022-08-26T15:34:59.760Z,1.00
2022-08-26T15:37:30.069Z,99.90
2022-08-26T15:40:02.500Z,99.90
2022-08-26T15:42:35.471Z,99.90
2022-08-26T15:45:06.067Z,1.00
2022-08-26T15:47:58.128Z,1.00
2022-08-26T15:50:29.462Z,1.00
2022-08-26T15:53:01.384Z,1.00
2022-08-26T15:55:31.789Z,1.00
2022-08-26T15:58:04.976Z,1.00
2022-08-26T16:00:35.493Z,1.00
2022-08-26T16:03:06.670Z,1.00
2022-08-26T16:05:39.659Z,1.00
2022-08-26T16:08:13.956Z,1.00
2022-08-26T16:10:51.405Z,1.00
2022-08-26T16:13:24.980Z,1.00
2022-08-26T16:15:59.114Z,1.00
2022-08-26T16:18:29.510Z,1.00
2022-08-26T16:21:13.342Z,1.00
2022-08-26T16:23:45.521Z,1.00
2022-08-26T16:26:20.626Z,1.00
2022-08-26T16:28:53.739Z,1.00
2022-08-26T16:31:24.401Z,1.00
2022-08-26T16:33:54.711Z,1.00
2022-08-26T16:36:25.007Z,1.00
2022-08-26T16:38:56.717Z,1.30
2022-08-26T16:41:31.071Z,8.00
2022-08-26T16:44:04.335Z,23.30
2022-08-26T16:46:35.151Z,32.40
2022-08-26T16:49:06.138Z,42.60
2022-08-26T16:51:38.175Z,80.10
2022-08-26T16:54:10.892Z,84.20
2022-08-26T16:56:41.975Z,90.60
2022-08-26T16:59:14.814Z,55.20
2022-08-26T17:01:45.132Z,59.30
2022-08-26T17:04:15.348Z,46.60
2022-08-26T17:06:45.656Z,52.00
2022-08-26T17:09:15.909Z,82.80
2022-08-26T17:11:47.096Z,91.90
2022-08-26T17:14:20.583Z,94.60
2022-08-26T17:16:53.852Z,96.70
2022-08-26T17:19:40.890Z,99.90
2022-08-26T17:22:20.448Z,99.90
2022-08-26T17:24:50.658Z,97.70
2022-08-26T17:27:20.992Z,99.90
2022-08-26T17:29:53.807Z,99.90
2022-08-26T17:32:24.124Z,98.30
2022-08-26T17:35:00.766Z,99.90
2022-08-26T17:37:31.401Z,99.90
2022-08-26T17:40:02.527Z,99.90
2022-08-26T17:42:32.787Z,99.90
2022-08-26T17:45:06.124Z,99.90
2022-08-26T17:47:36.866Z,99.90
2022-08-26T17:50:12.918Z,99.90
2022-08-26T17:52:44.338Z,99.90
2022-08-26T17:55:17.984Z,99.90
2022-08-26T17:57:53.496Z,99.90
2022-08-26T18:00:29.401Z,99.90
2022-08-26T18:03:02.180Z,99.90
2022-08-26T18:05:32.717Z,99.90
2022-08-26T18:08:02.858Z,99.90
2022-08-26T18:10:35.326Z,99.90
2022-08-26T18:13:08.101Z,99.90
2022-08-26T18:15:41.718Z,99.90
2022-08-26T18:18:13.452Z,99.90
2022-08-26T18:20:46.315Z,99.90
2022-08-26T18:23:23.348Z,99.90
2022-08-26T18:25:57.345Z,99.90
2022-08-26T18:28:28.298Z,99.90
2022-08-26T18:31:01.216Z,99.90
2022-08-26T18:33:31.421Z,99.90
2022-08-26T18:36:01.694Z,99.90
2022-08-26T18:38:31.839Z,99.90
2022-08-26T18:41:07.918Z,99.90
2022-08-26T18:43:38.113Z,99.90
2022-08-26T18:46:13.443Z,99.90
2022-08-26T18:48:45.817Z,99.90
2022-08-26T18:51:25.785Z,99.90
2022-08-26T18:53:58.587Z,99.90
2022-08-26T18:56:29.288Z,99.90
2022-08-26T18:58:59.895Z,99.90
2022-08-26T19:01:34.901Z,99.90
2022-08-26T19:04:08.000Z,99.90
2022-08-26T19:06:39.498Z,99.90
2022-08-26T19:09:14.560Z,99.90
2022-08-26T19:11:49.644Z,99.90
2022-08-26T19:14:21.740Z,99.90
2022-08-26T19:16:55.434Z,99.90
2022-08-26T19:19:26.823Z,99.90
2022-08-26T19:21:57.200Z,99.90
2022-08-26T19:24:28.386Z,99.90
2022-08-26T19:27:02.518Z,99.90
2022-08-26T19:29:37.833Z,99.90
2022-08-26T19:32:10.712Z,99.90
2022-08-26T19:34:40.960Z,99.90
2022-08-26T19:37:11.163Z,99.90
2022-08-26T19:39:41.371Z,99.90
2022-08-26T19:42:11.534Z,99.90
2022-08-26T19:44:54.254Z,99.90
2022-08-26T19:47:29.270Z,99.90
2022-08-26T19:50:00.051Z,99.90
2022-08-26T19:52:32.116Z,99.90
2022-08-26T19:55:04.992Z,99.90
2022-08-26T19:57:35.522Z,99.90
2022-08-26T20:00:09.236Z,99.90
2022-08-26T20:02:42.769Z,99.90
2022-08-26T20:05:17.301Z,99.90
2022-08-26T20:07:47.714Z,99.90
2022-08-26T20:10:20.648Z,99.90
2022-08-26T20:12:53.755Z,99.90
2022-08-26T20:15:25.691Z,99.90
2022-08-26T20:18:01.181Z,99.90
2022-08-26T20:20:46.104Z,99.90
2022-08-26T20:23:18.188Z,99.90
2022-08-26T20:25:48.408Z,99.90
2022-08-26T20:28:18.671Z,99.90
2022-08-26T20:30:51.929Z,99.90
2022-08-26T20:33:24.998Z,99.90
2022-08-26T20:35:55.283Z,99.90
2022-08-26T20:38:25.498Z,99.90
2022-08-26T20:40:56.521Z,99.90
2022-08-26T20:43:26.921Z,99.90
2022-08-26T20:45:57.219Z,99.90
2022-08-26T20:48:30.152Z,99.90
2022-08-26T20:51:04.139Z,99.90
2022-08-26T20:53:35.712Z,99.90
2022-08-26T20:56:09.283Z,99.90
2022-08-26T20:58:40.925Z,99.90
2022-08-26T21:01:19.523Z,99.90
2022-08-26T21:03:55.019Z,99.90
2022-08-26T21:06:25.919Z,99.90
2022-08-26T21:08:57.080Z,99.90
2022-08-26T21:11:28.371Z,99.90
2022-08-26T21:14:06.897Z,99.90
2022-08-26T21:16:48.675Z,99.90
2022-08-26T21:19:22.706Z,99.90
2022-08-26T21:21:53.452Z,99.90
2022-08-26T21:24:24.037Z,99.90
2022-08-26T21:26:54.288Z,99.90
2022-08-26T21:29:37.134Z,99.90
2022-08-26T21:32:08.555Z,99.90
2022-08-26T21:34:45.189Z,99.90
2022-08-26T21:37:16.777Z,99.90
2022-08-26T21:39:47.412Z,99.90
2022-08-26T21:42:17.879Z,99.90
2022-08-26T21:44:52.696Z,99.90
2022-08-26T21:47:24.466Z,99.90
2022-08-26T21:49:57.464Z,99.90
2022-08-26T21:52:27.811Z,99.90
2022-08-26T21:55:01.557Z,99.90
2022-08-26T21:57:32.242Z,99.90
2022-08-26T22:00:04.710Z,99.90
2022-08-26T22:02:35.216Z,99.90
2022-08-26T22:05:08.859Z,99.90
2022-08-26T22:07:39.090Z,99.90
2022-08-26T22:10:11.303Z,99.90
2022-08-26T22:12:41.539Z,99.90
2022-08-26T22:15:13.200Z,99.90
2022-08-26T22:17:43.526Z,99.90
2022-08-26T22:20:16.882Z,99.90
2022-08-26T22:22:47.482Z,99.90
2022-08-26T22:25:17.714Z,99.90
2022-08-26T22:27:47.909Z,99.90
2022-08-26T22:30:19.822Z,99.90
2022-08-26T22:32:50.371Z,99.90
2022-08-26T22:35:28.851Z,99.90
2022-08-26T22:38:00.944Z,99.90
2022-08-26T22:40:31.158Z,99.90
2022-08-26T22:43:01.589Z,99.90
2022-08-26T22:45:35.082Z,99.90
2022-08-26T22:48:09.658Z,99.90
2022-08-26T22:50:42.534Z,99.90
2022-08-26T22:53:13.457Z,99.90
2022-08-26T22:55:43.667Z,99.90
2022-08-26T22:58:15.900Z,99.90
2022-08-26T23:00:48.415Z,99.90
2022-08-26T23:03:20.086Z,99.90
2022-08-26T23:05:55.423Z,99.90
2022-08-26T23:08:27.469Z,99.90
2022-08-26T23:10:57.647Z,99.90
2022-08-26T23:13:27.935Z,99.90
2022-08-26T23:16:05.094Z,99.90
2022-08-26T23:18:35.580Z,99.90
2022-08-26T23:21:09.041Z,99.90
2022-08-26T23:23:39.695Z,99.90
2022-08-26T23:26:12.629Z,99.90
2022-08-26T23:28:44.691Z,99.90
2022-08-26T23:31:14.939Z,99.90
2022-08-26T23:33:57.699Z,99.90
2022-08-26T23:36:31.206Z,99.90
2022-08-26T23:39:07.112Z,99.90
2022-08-26T23:41:38.482Z,99.90
2022-08-26T23:44:11.380Z,99.90
2022-08-26T23:46:42.638Z,99.90
2022-08-26T23:49:12.796Z,99.90
2022-08-26T23:51:58.094Z,99.90
2022-08-26T23:54:28.318Z,99.90
2022-08-26T23:56:58.529Z,99.90
2022-08-26T23:59:28.898Z,99.90
